Heber, UT

06:33 PM MDT am 22. Oktober 2014 (GMT -0600)
Heber | Change Station
CLOSE
Current Station
Flughafen
Location: Heber,
Höhe: 5636 ft
Wetterstationen in der Umgebung

Höhe 5636 ft 40.48 °N, 111.43 °W | Updated 18 minutes ago

Heiter
Heiter
54 °F
gefühlte 54 °F
N
9
Wind Wechselnd Wind aus Südwest

Heute
Max. -- | schwach -- °F
--% Regenrisiko
Gestern
Max. -- | schwach -- °F
Precip. -- inch
7:43 AM 6:34 PM
Letztes Viertel, 1% visible
Druck 30.17 inch
Sichtweite 10.0 Meilen
Wolken Heiter
Taupunkt 27 °F
Feuchtigkeit 35%
Regen 0.00 inch
Schneehöhe 0 in , 0 in
UV 0 von 12
Pollen 1.60 von 12
Luftqualität Nicht verfügbar..
Flu Activity Sporadic
METAR K36U 230015Z AUTO 23008KT 10SM CLR 12/M03 A3017 RMK AO2

More Conditions Fewer Conditions

Druck 30.17 inch
Sichtweite 10.0 Meilen
Wolken Heiter
Taupunkt 27 °F
Feuchtigkeit 35%
Regen 0.00 inch
Schneehöhe 0 in , 0 in
UV 0 von 12
Pollen 1.60 von 12
Luftqualität Nicht verfügbar..
Flu Activity Sporadic
METAR K36U 230015Z AUTO 23008KT 10SM CLR 12/M03 A3017 RMK AO2

More Conditions Fewer Conditions

10-Day Weather Forecast

Almanac

Astronomie

Oct. 22, 2014 Aufgang Untergang
Genaue Zeit 07:43 MDT 18:34 MDT
Bürgerliche Dämmerung 07:15 MDT 19:02 MDT
Nautische Dämmerung 06:43 MDT 19:34 MDT
Astronomische Dämmerung 06:12 MDT 20:05 MDT
Mond 06:28 MDT (10/22) 18:03 MDT (10/22)
Länge des sichtbaren Lichts 11h 46m
Tageslänge
10h 51m
Tomorrow will be 2m 29s shorter.
Letztes Viertel, 1% of the Moon is Illuminated
Heute
Letztes Viertel
Okt 23
Neu
Okt 30
Erstes Viertel
Nov 6
Vollmond
Nov 14
Letztes Viertel

Heutige Rekorde

State Highs State Lows

Community

WunderPhotos

Upload Photos

1,764,095 Fotos hochgeladen!

WunderBlogs® & News

Nearby

Schneehöhe

Station Depth Höhe
Daniels-Strawberry 0 in 8000 ft
Strawberry Divide 0 in 8400 ft
Cascade Mountain 1 in 7768 ft
Brighton 0 in 8750 ft
Trial Lake 0 in 9960 ft

Erdbebenaktivität

Stadt Distance Mag. Time & Date
Ferron, Utah 99 Meilen 2.5 22:53 MDT
2014-10-21
Minimum magnitude displayed is 2.5.

küstennahe Wassertemperaturen

Ort Temperatur
Kein Stationsbericht

Wetterstationen in der Umgebung